Terminal Aerodrome Forecast
Issued by NWS

Home | Current Version | Previous Version | Text Only | Print | Product List | Glossary On
Versions: 1 2 3 4 5 6 7 8 9 10 11 12 13 14 15
951
FTUS46 KSEW 210540
TAFBFI
TAF
KBFI 210540Z 2106/2206 16010KT P6SM BKN080 OVC120
     FM211000 13008KT P6SM -RA BKN045 OVC080
     FM211400 14008KT 6SM -RA BKN030 OVC045
     FM211800 15010KT 3SM RA BR OVC012
     FM220200 17010G20KT 5SM -RA BR OVC016=

USA.gov is the U.S. government's official web portal to all federal, state and local government web resources and services.